Time;durP1;ratioP1;P1;durP2;ratioP2;P2;SDS_P1;SDS_P2;PMS_P1;PMS_P2;Temp;Humidity;BMP_temperature;BMP_pressure;BME280_temperature;BME280_humidity;BME280_pressure;Samples;Min_cycle;Max_cycle;Signal;HPM_P1;HPM_P2
2022/08/26 00:01:23;;;;;;;4.25;2.72;;;;;;;37.24;25.67;100623.97;4964668;28;20046;-72
2022/08/26 00:03:51;;;;;;;3.25;2.92;;;;;;;37.26;25.83;100622.03;4961582;28;20051;-72
2022/08/26 00:06:20;;;;;;;2.90;2.10;;;;;;;37.28;25.17;100619.19;4962830;28;20054;-72
2022/08/26 00:08:48;;;;;;;6.93;2.75;;;;;;;37.31;25.17;100617.06;4968695;28;20058;-72
2022/08/26 00:11:17;;;;;;;3.95;2.40;;;;;;;37.34;25.10;100623.19;4960883;28;20055;-73
2022/08/26 00:13:47;;;;;;;6.75;2.58;;;;;;;37.30;25.45;100612.69;4960406;28;20061;-72
2022/08/26 00:16:16;;;;;;;8.80;2.90;;;;;;;37.29;26.51;100615.50;4965734;28;20047;-72
2022/08/26 00:18:44;;;;;;;4.35;2.75;;;;;;;37.31;26.12;100614.38;4970464;28;20050;-72
2022/08/26 00:21:13;;;;;;;7.03;2.50;;;;;;;37.32;26.17;100615.25;4963224;28;20493;-72
2022/08/26 00:23:41;;;;;;;6.53;2.75;;;;;;;37.32;26.55;100615.25;4961601;28;20054;-73
2022/08/26 00:26:19;;;;;;;5.38;2.38;;;;;;;37.30;26.73;100611.84;4968588;28;20047;-73
2022/08/26 00:28:50;;;;;;;4.43;2.60;;;;;;;37.27;26.59;100607.56;4967969;28;20409;-71
2022/08/26 00:31:18;;;;;;;4.00;2.60;;;;;;;37.22;26.51;100604.38;4962743;28;20074;-83
2022/08/26 00:33:47;;;;;;;4.45;2.80;;;;;;;37.16;26.70;100604.91;4966512;28;20098;-73
2022/08/26 00:36:15;;;;;;;6.45;2.90;;;;;;;37.14;26.30;100609.59;4955238;28;20051;-74
2022/08/26 00:38:51;;;;;;;9.35;3.05;;;;;;;37.10;26.58;100606.28;4976196;28;20500;-73
2022/08/26 00:41:20;;;;;;;7.32;2.78;;;;;;;37.04;26.50;100601.41;4974546;28;20042;-74
2022/08/26 00:43:52;;;;;;;7.10;2.67;;;;;;;36.96;27.25;100597.63;4987182;28;20060;-74
2022/08/26 00:46:24;;;;;;;7.15;3.03;;;;;;;36.94;26.85;100604.97;4989044;28;20054;-73
2022/08/26 00:49:00;;;;;;;5.97;3.35;;;;;;;36.88;27.21;100600.94;4989322;28;20555;-73
2022/08/26 00:51:29;;;;;;;6.50;2.75;;;;;;;36.78;27.42;100598.16;4983316;28;20097;-74
2022/08/26 00:54:07;;;;;;;4.50;2.92;;;;;;;36.72;27.23;100596.00;4981600;28;20050;-72
2022/08/26 00:56:42;;;;;;;5.68;3.15;;;;;;;36.66;27.47;100591.97;4989001;28;20058;-72
2022/08/26 00:59:14;;;;;;;3.67;2.40;;;;;;;36.60;27.61;100592.47;4982526;28;20059;-72
2022/08/26 01:01:44;;;;;;;4.78;2.83;;;;;;;36.60;27.44;100586.22;4986889;28;20053;-71
2022/08/26 01:04:15;;;;;;;7.05;3.30;;;;;;;36.54;27.43;100594.78;4992314;28;20053;-71
2022/08/26 01:06:44;;;;;;;8.43;2.88;;;;;;;36.46;27.82;100604.34;4990203;28;20081;-71
2022/08/26 01:09:13;;;;;;;6.63;2.83;;;;;;;36.40;27.54;100599.50;4991038;28;20753;-72
2022/08/26 01:11:42;;;;;;;5.25;3.03;;;;;;;36.34;27.36;100599.97;4989117;28;20050;-72
2022/08/26 01:14:13;;;;;;;6.70;3.05;;;;;;;36.26;27.65;100600.63;4991185;28;20052;-72
2022/08/26 01:16:41;;;;;;;;;;;;;;;36.23;27.73;100605.38;4990065;28;20056;-71
2022/08/26 01:19:19;;;;;;;7.70;2.95;;;;;;;36.17;28.27;100612.13;4989570;28;19922;-71
2022/08/26 01:21:55;;;;;;;6.13;2.70;;;;;;;36.13;28.28;100610.66;4991537;28;20050;-73
2022/08/26 01:24:26;;;;;;;8.80;2.65;;;;;;;36.05;28.92;100613.06;4987307;28;21005;-73
2022/08/26 01:27:00;;;;;;;4.55;2.83;;;;;;;35.99;28.45;100614.44;4990782;28;20058;-77
2022/08/26 01:29:31;;;;;;;6.15;2.40;;;;;;;35.89;29.05;100613.44;4990889;28;20042;-74
2022/08/26 01:32:00;;;;;;;4.97;1.88;;;;;;;35.78;29.67;100611.63;4988092;28;20058;-71
2022/08/26 01:34:31;;;;;;;3.55;1.70;;;;;;;35.69;30.28;100611.47;4991690;28;20054;-74
2022/08/26 01:37:10;;;;;;;9.35;1.95;;;;;;;35.57;30.15;100613.25;4995471;28;20051;-76
2022/08/26 01:39:42;;;;;;;7.18;2.28;;;;;;;35.49;30.22;100616.56;4996418;28;20038;-80
2022/08/26 01:42:13;;;;;;;5.85;1.90;;;;;;;35.43;30.64;100609.78;4989927;28;20597;-81
2022/08/26 01:44:46;;;;;;;3.45;2.17;;;;;;;35.33;31.32;100607.97;4991423;28;20051;-80
2022/08/26 01:47:17;;;;;;;4.28;1.80;;;;;;;35.12;31.93;100603.25;4991222;28;20042;-77
2022/08/26 01:49:48;;;;;;;4.63;1.55;;;;;;;34.99;32.41;100610.50;4990428;28;20399;-77
2022/08/26 01:52:22;;;;;;;2.60;1.70;;;;;;;34.88;30.62;100605.06;4992262;28;20043;-76
2022/08/26 01:54:54;;;;;;;5.18;1.60;;;;;;;34.83;31.85;100622.38;4997906;28;20046;-78
2022/08/26 01:57:22;;;;;;;;;;;;;;;34.76;32.73;100618.44;4995372;28;20049;-75
2022/08/26 01:59:53;;;;;;;4.57;1.40;;;;;;;34.67;33.02;100616.44;4992051;28;19944;-77
2022/08/26 02:02:22;;;;;;;4.50;1.65;;;;;;;34.60;32.26;100621.38;4997496;28;20142;-77
2022/08/26 02:04:54;;;;;;;3.08;1.70;;;;;;;34.56;32.51;100617.19;4994830;28;20054;-78
2022/08/26 02:07:24;;;;;;;3.55;1.48;;;;;;;34.50;32.81;100614.09;4995051;28;20050;-75
2022/08/26 02:09:54;;;;;;;4.43;1.50;;;;;;;34.38;34.64;100619.44;4989292;28;20143;-75
2022/08/26 02:12:23;;;;;;;4.43;1.55;;;;;;;34.23;35.42;100623.22;4992475;28;20046;-79
2022/08/26 02:14:54;;;;;;;6.18;1.73;;;;;;;34.07;34.84;100626.09;4988581;28;20508;-76
2022/08/26 02:17:25;;;;;;;2.42;1.20;;;;;;;33.95;33.49;100625.16;4986407;28;20046;-77
2022/08/26 02:19:54;;;;;;;1.73;1.43;;;;;;;33.85;29.95;100632.13;4987867;28;20050;-76
2022/08/26 02:22:24;;;;;;;2.35;1.60;;;;;;;33.82;32.21;100639.53;4984448;28;20135;-78
2022/08/26 02:24:57;;;;;;;3.30;1.50;;;;;;;33.73;34.28;100633.00;4988769;28;20065;-73
2022/08/26 02:27:29;;;;;;;6.03;1.70;;;;;;;33.64;34.50;100633.63;4980057;28;20054;-75
2022/08/26 02:30:01;;;;;;;2.75;1.30;;;;;;;33.55;33.05;100635.94;4985718;28;20508;-75
2022/08/26 02:32:29;;;;;;;10.18;2.92;;;;;;;33.48;31.50;100644.53;4987475;28;20078;-75
2022/08/26 02:34:58;;;;;;;3.08;1.23;;;;;;;33.38;30.37;100649.66;4989858;28;21178;-78
2022/08/26 02:37:30;;;;;;;2.10;1.10;;;;;;;33.29;29.95;100647.59;4982775;28;20043;-74
2022/08/26 02:40:01;;;;;;;4.60;1.40;;;;;;;33.22;29.86;100643.63;4988898;28;20050;-77
2022/08/26 02:42:29;;;;;;;3.20;1.40;;;;;;;33.14;29.63;100652.16;4985948;28;20468;-76
2022/08/26 02:44:58;;;;;;;1.38;1.23;;;;;;;33.06;30.53;100650.00;4991173;28;20061;-75
2022/08/26 02:47:27;;;;;;;1.58;1.17;;;;;;;32.97;29.93;100662.16;4996995;28;20097;-79
2022/08/26 02:49:56;;;;;;;2.65;1.50;;;;;;;32.90;29.69;100649.28;5001145;28;20412;-76
2022/08/26 02:52:25;;;;;;;5.72;1.40;;;;;;;32.80;28.98;100659.72;4987572;28;20047;-81
2022/08/26 02:54:53;;;;;;;1.83;1.25;;;;;;;32.70;29.71;100666.63;4989332;28;20073;-78
2022/08/26 02:57:24;;;;;;;2.28;1.40;;;;;;;32.64;31.81;100670.56;4987193;28;20042;-79
2022/08/26 02:59:52;;;;;;;3.55;1.30;;;;;;;32.37;33.37;100666.94;4988375;28;20124;-79
2022/08/26 03:02:21;;;;;;;1.95;1.20;;;;;;;32.16;32.79;100672.69;4989457;28;20062;-77
2022/08/26 03:04:50;;;;;;;1.90;1.42;;;;;;;32.03;30.93;100664.56;4991913;28;20072;-79
2022/08/26 03:07:19;;;;;;;0.98;0.90;;;;;;;31.93;30.12;100674.97;4991174;28;20125;-77
2022/08/26 03:09:47;;;;;;;3.78;1.20;;;;;;;31.86;30.68;100675.41;4992219;28;20046;-78
2022/08/26 03:12:16;;;;;;;4.18;1.50;;;;;;;31.78;30.78;100672.34;4991586;28;20104;-80
2022/08/26 03:14:46;;;;;;;1.45;1.35;;;;;;;31.71;30.45;100680.75;4990256;28;20038;-82
2022/08/26 03:17:14;;;;;;;4.78;1.50;;;;;;;31.64;29.86;100678.53;4989266;28;20045;-77
2022/08/26 03:19:44;;;;;;;2.80;1.42;;;;;;;31.52;29.65;100686.34;4993932;28;20076;-81
2022/08/26 03:22:12;;;;;;;2.08;1.38;;;;;;;31.45;29.13;100690.31;4982704;28;20065;-78
2022/08/26 03:24:41;;;;;;;3.65;1.52;;;;;;;31.37;28.92;100686.34;4986510;28;20039;-78
2022/08/26 03:27:09;;;;;;;2.55;1.20;;;;;;;31.32;29.31;100691.97;4987886;28;20502;-78
2022/08/26 03:32:26;;;;;;;2.72;1.02;;;;;;;31.14;28.93;100696.56;4988911;28;20054;-79
2022/08/26 03:34:55;;;;;;;2.45;1.30;;;;;;;31.05;29.17;100711.28;4985863;28;20049;-78
2022/08/26 03:37:23;;;;;;;2.47;1.10;;;;;;;30.98;29.72;100712.59;4986645;28;20054;-78
2022/08/26 03:39:52;;;;;;;1.67;1.27;;;;;;;30.89;30.25;100718.47;4967886;28;20046;-82
2022/08/26 03:42:20;;;;;;;1.58;1.20;;;;;;;30.82;30.00;100719.72;4968707;28;20069;-79
2022/08/26 03:44:50;;;;;;;1.95;1.10;;;;;;;30.75;29.64;100731.69;4967545;28;20058;-79
2022/08/26 03:47:19;;;;;;;1.42;1.25;;;;;;;30.70;29.74;100731.94;4969642;28;20049;-77
2022/08/26 03:49:49;;;;;;;2.67;1.40;;;;;;;30.65;29.94;100729.53;4966996;28;20070;-80
2022/08/26 03:52:18;;;;;;;1.95;0.90;;;;;;;30.63;29.89;100734.09;4963489;28;20066;-83
2022/08/26 03:54:46;;;;;;;1.48;1.10;;;;;;;30.59;29.98;100742.34;4969809;28;20050;-77
2022/08/26 03:57:15;;;;;;;2.38;0.98;;;;;;;30.54;30.42;100747.09;4964768;28;20744;-85
2022/08/26 03:59:44;;;;;;;2.92;1.00;;;;;;;30.51;30.04;100755.25;4964391;28;20964;-77
2022/08/26 04:02:12;;;;;;;3.95;1.33;;;;;;;30.45;31.62;100751.13;4967380;28;20047;-84
2022/08/26 04:04:41;;;;;;;2.03;1.10;;;;;;;30.36;30.55;100756.94;4967446;28;20051;-80
2022/08/26 04:07:13;;;;;;;1.75;1.13;;;;;;;30.31;30.68;100764.34;4970130;28;20561;-82
2022/08/26 04:09:42;;;;;;;3.00;1.10;;;;;;;30.19;32.80;100764.00;4971219;28;20051;-82
2022/08/26 04:12:11;;;;;;;1.20;1.00;;;;;;;30.08;32.38;100769.03;4971650;28;20977;-80
2022/08/26 04:14:40;;;;;;;2.22;1.40;;;;;;;29.98;33.66;100762.44;4969639;28;20050;-78
2022/08/26 04:17:08;;;;;;;6.10;1.13;;;;;;;29.91;36.96;100764.56;4965638;28;20417;-77
2022/08/26 04:19:37;;;;;;;2.70;0.98;;;;;;;29.72;38.22;100763.78;4971073;28;20086;-79
2022/08/26 04:22:06;;;;;;;6.38;1.17;;;;;;;29.61;38.59;100774.94;4971050;28;20478;-82
2022/08/26 04:24:37;;;;;;;4.18;1.27;;;;;;;29.52;39.42;100781.59;4975325;28;20110;-83
2022/08/26 04:27:07;;;;;;;3.38;0.90;;;;;;;29.34;39.35;100783.34;4968929;28;20560;-79
2022/08/26 04:29:35;;;;;;;2.03;1.02;;;;;;;29.20;40.23;100785.81;4968798;28;20097;-84
2022/08/26 04:32:05;;;;;;;5.95;1.25;;;;;;;29.03;40.80;100792.78;4973791;28;20058;-84
2022/08/26 04:34:33;;;;;;;3.67;1.40;;;;;;;28.87;40.71;100794.44;4967529;28;20039;-80
2022/08/26 04:37:02;;;;;;;6.05;1.38;;;;;;;28.73;41.13;100800.41;4969401;28;20687;-76
2022/08/26 04:39:30;;;;;;;4.15;1.10;;;;;;;28.61;41.24;100793.81;4984228;28;20130;-80
2022/08/26 04:42:01;;;;;;;3.00;0.90;;;;;;;28.48;41.69;100797.13;4984767;28;21014;-79
2022/08/26 04:44:31;;;;;;;1.58;0.98;;;;;;;28.34;42.38;100795.88;4985666;28;20058;-75
2022/08/26 04:47:00;;;;;;;3.75;1.13;;;;;;;28.23;42.41;100799.94;4983245;28;20080;-80
2022/08/26 04:49:29;;;;;;;1.67;1.00;;;;;;;28.12;43.35;100792.44;4988577;28;20081;-83
2022/08/26 04:51:57;;;;;;;5.82;1.02;;;;;;;27.96;43.54;100800.19;4991835;28;20054;-79
2022/08/26 04:54:26;;;;;;;4.47;1.30;;;;;;;27.76;43.91;100807.19;4985359;28;20677;-77
2022/08/26 04:56:55;;;;;;;4.70;1.10;;;;;;;27.58;44.18;100806.16;4984056;28;20572;-77
2022/08/26 04:59:25;;;;;;;5.13;1.10;;;;;;;27.39;44.93;100809.59;4989888;28;20054;-76
2022/08/26 05:01:58;;;;;;;5.47;1.20;;;;;;;27.21;45.01;100813.84;4985856;28;20066;-78
2022/08/26 05:04:27;;;;;;;3.63;0.95;;;;;;;27.01;45.73;100822.53;4986627;28;20129;-80
2022/08/26 05:06:55;;;;;;;2.72;1.10;;;;;;;26.75;46.05;100824.34;4986058;28;20412;-81
2022/08/26 05:09:24;;;;;;;1.75;0.90;;;;;;;26.54;46.39;100825.97;4985842;28;20460;-79
2022/08/26 05:11:53;;;;;;;3.63;1.00;;;;;;;26.40;46.50;100833.56;4986312;28;20065;-76
2022/08/26 05:14:24;;;;;;;1.77;0.93;;;;;;;26.25;46.94;100840.25;4986187;28;20051;-77
2022/08/26 05:16:53;;;;;;;4.15;1.50;;;;;;;26.09;47.37;100846.09;4981364;28;20774;-76
2022/08/26 05:19:22;;;;;;;2.47;0.90;;;;;;;25.91;47.87;100836.13;4983342;28;20050;-73
2022/08/26 05:21:51;;;;;;;4.70;1.25;;;;;;;25.74;48.31;100849.84;4983334;28;20460;-76
2022/08/26 05:24:19;;;;;;;2.08;1.00;;;;;;;25.55;49.20;100854.88;4979717;28;20687;-76
2022/08/26 05:26:48;;;;;;;2.55;0.88;;;;;;;25.27;49.13;100852.22;4988560;28;20058;-76
2022/08/26 05:29:17;;;;;;;2.58;0.82;;;;;;;25.05;50.15;100866.03;4978672;28;20524;-76
2022/08/26 05:31:47;;;;;;;3.15;0.95;;;;;;;24.91;50.46;100857.63;4983053;28;20083;-79
2022/08/26 05:34:16;;;;;;;1.67;0.90;;;;;;;24.83;50.19;100868.44;4982620;28;20051;-76
2022/08/26 05:36:45;;;;;;;2.50;1.10;;;;;;;24.71;50.58;100860.81;4985942;28;20051;-78
2022/08/26 05:39:13;;;;;;;2.78;1.13;;;;;;;24.64;51.75;100875.13;4985122;28;20055;-78
2022/08/26 05:41:43;;;;;;;3.17;1.08;;;;;;;24.58;52.94;100870.00;4990767;28;20042;-78
2022/08/26 05:44:15;;;;;;;3.85;1.00;;;;;;;24.49;52.61;100878.19;4987055;28;20500;-76
2022/08/26 05:46:44;;;;;;;2.20;0.98;;;;;;;24.37;52.39;100882.88;4991255;28;20595;-77
2022/08/26 05:49:15;;;;;;;2.90;1.00;;;;;;;24.17;53.07;100887.78;4991446;28;20054;-78
2022/08/26 05:51:45;;;;;;;4.80;1.15;;;;;;;23.95;53.45;100883.00;4990483;28;20598;-74
2022/08/26 05:54:14;;;;;;;1.50;0.80;;;;;;;23.84;54.06;100879.75;4991116;28;20220;-76
2022/08/26 05:56:42;;;;;;;3.40;0.95;;;;;;;23.81;54.43;100887.75;4988450;28;20046;-78
2022/08/26 05:59:15;;;;;;;1.85;1.05;;;;;;;23.76;54.62;100879.09;4987299;28;20050;-74
2022/08/26 06:01:43;;;;;;;;;;;;;;;23.67;54.40;100879.25;4992997;28;20768;-73
2022/08/26 06:04:13;;;;;;;1.25;0.70;;;;;;;23.57;54.72;100878.56;4989434;28;20016;-73
2022/08/26 06:06:42;;;;;;;2.75;0.85;;;;;;;23.50;54.79;100875.22;4992751;28;20496;-77
2022/08/26 06:09:10;;;;;;;3.30;0.93;;;;;;;23.49;55.05;100881.41;4993460;28;20049;-76
2022/08/26 06:11:39;;;;;;;3.03;1.00;;;;;;;23.43;54.84;100889.44;4985212;28;20060;-77
2022/08/26 06:14:09;;;;;;;5.15;1.02;;;;;;;23.35;55.13;100892.25;4987156;28;20058;-76
2022/08/26 06:16:40;;;;;;;1.35;0.88;;;;;;;23.26;54.88;100895.09;4983832;28;20126;-74
2022/08/26 06:19:09;;;;;;;2.33;0.80;;;;;;;23.14;55.67;100885.66;4988260;28;20121;-78
2022/08/26 06:21:40;;;;;;;1.20;0.80;;;;;;;22.96;55.91;100889.50;4989038;28;20042;-77
2022/08/26 06:27:00;;;;;;;2.03;0.80;;;;;;;22.75;56.36;100898.69;4984515;28;20062;-77
2022/08/26 06:29:30;;;;;;;1.75;1.05;;;;;;;22.69;57.02;100892.66;4989207;28;20046;-82
2022/08/26 06:31:59;;;;;;;1.48;0.90;;;;;;;22.60;56.94;100898.97;4986439;28;20084;-75
2022/08/26 06:34:28;;;;;;;1.92;0.85;;;;;;;22.57;57.47;100899.03;4983955;28;20051;-75
2022/08/26 06:37:01;;;;;;;2.67;0.90;;;;;;;22.47;57.55;100905.34;4987464;28;20050;-73
2022/08/26 06:39:29;;;;;;;1.73;0.90;;;;;;;22.37;58.06;100902.88;4988658;28;20050;-74
2022/08/26 06:41:58;;;;;;;1.17;0.90;;;;;;;22.25;57.70;100900.44;4984232;28;20069;-74
2022/08/26 06:44:27;;;;;;;2.13;0.80;;;;;;;22.19;58.31;100908.41;4990259;28;20039;-74
2022/08/26 06:46:56;;;;;;;2.33;0.70;;;;;;;22.10;59.18;100912.06;4989020;28;20054;-76
2022/08/26 06:49:24;;;;;;;1.00;0.80;;;;;;;21.98;59.31;100906.13;4992364;28;20484;-74
2022/08/26 06:51:53;;;;;;;1.08;0.80;;;;;;;21.88;59.78;100913.31;4986618;28;20058;-74
2022/08/26 06:54:23;;;;;;;1.38;0.82;;;;;;;21.71;60.87;100911.75;4986193;28;20112;-75
2022/08/26 06:56:51;;;;;;;1.80;0.98;;;;;;;21.61;61.02;100915.44;4989996;28;20058;-74
2022/08/26 06:59:20;;;;;;;3.70;0.90;;;;;;;21.57;61.08;100918.97;4995399;28;20076;-74
2022/08/26 07:01:49;;;;;;;1.35;0.80;;;;;;;21.54;61.01;100919.91;4991059;28;20047;-73
2022/08/26 07:04:18;;;;;;;2.45;0.80;;;;;;;21.48;61.42;100917.34;4984321;28;20593;-74
2022/08/26 07:06:49;;;;;;;0.98;0.70;;;;;;;21.51;61.51;100927.00;4991862;28;20043;-77
2022/08/26 07:09:18;;;;;;;3.08;1.00;;;;;;;21.50;61.79;100933.13;4981483;28;20053;-76
2022/08/26 07:11:48;;;;;;;1.33;0.80;;;;;;;21.48;62.28;100933.13;4996735;28;20124;-75
2022/08/26 07:14:17;;;;;;;1.05;0.77;;;;;;;21.45;61.88;100934.94;4985754;28;20077;-75
2022/08/26 07:16:46;;;;;;;1.45;0.90;;;;;;;21.42;61.96;100930.59;4984939;28;20074;-76
2022/08/26 07:19:15;;;;;;;0.90;0.70;;;;;;;21.37;62.20;100935.00;4985653;28;20046;-74
2022/08/26 07:21:43;;;;;;;1.63;0.88;;;;;;;21.29;62.41;100935.09;4988988;28;20073;-74
2022/08/26 07:24:12;;;;;;;1.45;0.82;;;;;;;21.29;62.48;100942.13;4987360;28;20100;-72
2022/08/26 07:26:41;;;;;;;1.10;0.80;;;;;;;21.25;63.26;100932.53;4984299;28;20083;-76
2022/08/26 07:29:12;;;;;;;1.42;0.70;;;;;;;21.16;63.52;100932.63;4980254;28;20146;-74
2022/08/26 07:31:41;;;;;;;0.90;0.70;;;;;;;21.02;63.89;100931.00;4983079;28;20097;-75
2022/08/26 07:34:10;;;;;;;1.10;0.73;;;;;;;20.90;64.33;100932.03;4981765;28;20515;-75
2022/08/26 07:36:38;;;;;;;3.05;1.55;;;;;;;20.83;64.92;100929.47;4988687;28;20050;-73
2022/08/26 07:39:07;;;;;;;1.50;0.70;;;;;;;20.70;65.54;100928.72;4980194;28;20057;-75
2022/08/26 07:41:36;;;;;;;1.08;0.60;;;;;;;20.63;65.46;100927.91;4970686;28;20472;-75
2022/08/26 07:44:05;;;;;;;1.02;0.60;;;;;;;20.60;65.52;100927.06;4972528;28;20061;-75
2022/08/26 07:46:35;;;;;;;1.00;0.70;;;;;;;20.56;65.95;100934.09;4970064;28;20055;-74
2022/08/26 07:49:03;;;;;;;1.80;0.80;;;;;;;20.52;65.96;100942.84;4969855;28;20575;-75
2022/08/26 07:51:32;;;;;;;2.33;0.80;;;;;;;20.51;66.19;100943.75;4974468;28;20528;-74
2022/08/26 07:54:01;;;;;;;1.30;0.70;;;;;;;20.50;66.26;100942.91;4965829;28;20097;-75
2022/08/26 07:56:29;;;;;;;1.88;0.80;;;;;;;20.49;66.21;100945.53;4972840;28;20050;-75
2022/08/26 07:58:58;;;;;;;1.63;0.88;;;;;;;20.43;66.96;100946.47;4975235;28;20054;-77
2022/08/26 08:01:28;;;;;;;1.25;0.70;;;;;;;20.37;66.72;100950.88;4970396;28;20567;-77
2022/08/26 08:03:59;;;;;;;0.90;0.80;;;;;;;20.34;66.68;100958.78;4966458;28;20094;-77
2022/08/26 08:06:28;;;;;;;1.13;0.70;;;;;;;20.32;67.13;100958.81;4962279;28;20054;-78
2022/08/26 08:08:56;;;;;;;0.85;0.70;;;;;;;20.28;67.12;100963.19;4976897;28;20779;-74
2022/08/26 08:11:28;;;;;;;1.45;0.70;;;;;;;20.23;67.14;100958.88;4971172;28;20563;-75
2022/08/26 08:13:59;;;;;;;1.05;0.80;;;;;;;20.18;67.67;100971.16;4966609;28;20065;-75
2022/08/26 08:16:28;;;;;;;1.55;0.90;;;;;;;20.17;68.13;100967.66;4969516;28;20042;-75
2022/08/26 08:18:58;;;;;;;3.28;0.70;;;;;;;20.17;68.27;100965.03;4961231;28;20129;-75
2022/08/26 08:21:27;;;;;;;1.52;0.70;;;;;;;20.16;68.28;100971.19;4975549;28;20051;-77
2022/08/26 08:23:57;;;;;;;2.20;0.90;;;;;;;20.17;68.56;100972.03;4965681;28;20051;-75
2022/08/26 08:26:26;;;;;;;1.85;0.70;;;;;;;20.09;68.08;100956.34;4974190;28;20120;-75
2022/08/26 08:28:56;;;;;;;3.05;0.90;;;;;;;20.11;68.25;100967.69;4965272;28;20584;-75
2022/08/26 08:31:27;;;;;;;0.95;0.70;;;;;;;20.04;68.83;100968.63;4970684;28;20051;-78
2022/08/26 08:33:57;;;;;;;1.83;0.90;;;;;;;19.95;69.19;100969.56;4965093;28;20054;-75
2022/08/26 08:36:26;;;;;;;1.30;0.80;;;;;;;19.90;69.36;100975.72;4971128;28;20038;-74
2022/08/26 08:38:54;;;;;;;1.67;0.68;;;;;;;19.87;69.43;100976.59;4967219;28;20120;-75
2022/08/26 08:41:42;;;;;;;1.40;0.90;;;;;;;19.83;69.84;100977.50;4963562;28;20050;-74
2022/08/26 08:44:14;;;;;;;1.80;0.77;;;;;;;19.73;69.85;100992.41;4961575;28;20737;-73
2022/08/26 08:46:43;;;;;;;1.67;0.90;;;;;;;19.61;70.76;100987.19;4965582;28;20353;-74
2022/08/26 08:49:15;;;;;;;2.17;0.93;;;;;;;19.45;71.75;100989.00;4961645;28;20490;-74
2022/08/26 08:51:52;;;;;;;1.55;0.82;;;;;;;19.35;71.73;100987.28;4966566;28;20046;-74
2022/08/26 08:54:21;;;;;;;1.00;0.80;;;;;;;19.32;72.59;100990.78;4963698;28;20043;-74
2022/08/26 08:56:53;;;;;;;1.73;0.80;;;;;;;19.32;72.23;100998.66;4962321;28;20137;-73
2022/08/26 08:59:23;;;;;;;0.95;0.73;;;;;;;19.30;71.88;101000.41;4966549;28;20049;-76
2022/08/26 09:02:04;;;;;;;1.60;0.80;;;;;;;19.27;72.49;101005.66;4961452;28;20051;-76
2022/08/26 09:04:58;;;;;;;2.58;0.80;;;;;;;19.22;72.98;101013.56;4962290;28;20054;-76
2022/08/26 09:07:31;;;;;;;1.38;0.90;;;;;;;19.16;73.42;101010.06;4962383;28;20047;-75
2022/08/26 09:10:04;;;;;;;2.15;0.82;;;;;;;19.10;73.99;101007.44;4962937;28;20077;-75
2022/08/26 09:12:33;;;;;;;;;;;;;;;19.01;74.60;101013.56;4946127;28;20063;-75
2022/08/26 09:15:05;;;;;;;1.52;0.75;;;;;;;18.93;73.91;101017.97;4964597;28;20438;-76
2022/08/26 09:17:41;;;;;;;1.63;0.70;;;;;;;18.94;74.41;101020.56;4966004;28;20901;-75
2022/08/26 09:20:20;;;;;;;2.20;0.82;;;;;;;18.96;74.12;101021.44;4964198;28;20406;-74
2022/08/26 09:22:50;;;;;;;0.90;0.73;;;;;;;18.97;73.83;101023.19;4968598;28;21154;-76
2022/08/26 09:25:18;;;;;;;2.45;0.73;;;;;;;18.98;73.88;101018.81;4968300;28;20055;-74
2022/08/26 09:27:49;;;;;;;2.85;0.90;;;;;;;18.98;73.93;101027.56;4970140;28;20039;-74
2022/08/26 09:30:25;;;;;;;1.27;0.80;;;;;;;18.97;74.33;101028.44;4968359;28;20536;-75
2022/08/26 09:33:00;;;;;;;1.33;0.80;;;;;;;18.96;73.95;101023.19;4970034;28;20058;-75
2022/08/26 09:35:35;;;;;;;1.08;0.80;;;;;;;18.95;73.84;101027.56;4969718;28;20043;-75
2022/08/26 09:38:20;;;;;;;0.82;0.70;;;;;;;18.92;73.93;101030.22;4965548;28;20058;-76
2022/08/26 09:40:57;;;;;;;1.58;0.70;;;;;;;18.92;74.47;101045.94;4985098;28;20050;-76
2022/08/26 09:43:27;;;;;;;1.83;0.65;;;;;;;18.86;74.58;101040.69;4988932;28;20057;-76
2022/08/26 09:46:10;;;;;;;1.10;0.80;;;;;;;18.78;75.01;101042.41;4988921;28;20533;-76
2022/08/26 09:48:41;;;;;;;2.50;0.77;;;;;;;18.72;75.33;101039.78;4989283;28;20101;-76
2022/08/26 09:51:30;;;;;;;3.55;0.70;;;;;;;18.69;74.48;101058.09;4992794;28;20500;-76
2022/08/26 09:54:01;;;;;;;1.65;0.73;;;;;;;18.64;75.35;101039.75;4987203;28;20057;-74
2022/08/26 09:56:32;;;;;;;0.95;0.70;;;;;;;18.56;75.73;101045.00;4984527;28;20571;-75
2022/08/26 09:59:01;;;;;;;1.25;0.90;;;;;;;18.51;76.02;101043.22;4987798;28;20578;-75
2022/08/26 10:01:33;;;;;;;1.52;0.90;;;;;;;18.47;76.23;101042.38;4985713;28;20050;-74
2022/08/26 10:04:07;;;;;;;1.33;0.70;;;;;;;18.47;76.42;101044.13;4988695;28;20047;-74
2022/08/26 10:06:41;;;;;;;1.00;0.68;;;;;;;18.35;77.15;101037.13;4986222;28;20055;-74
2022/08/26 10:09:14;;;;;;;1.15;0.60;;;;;;;18.32;76.87;101042.31;4980507;28;20599;-73
2022/08/26 10:11:46;;;;;;;;;;;;;;;18.32;76.94;101043.19;4978096;28;20105;-74
2022/08/26 10:14:19;;;;;;;3.03;0.80;;;;;;;18.33;76.81;101044.97;4979990;28;20388;-75
2022/08/26 10:16:53;;;;;;;1.33;0.80;;;;;;;18.32;77.34;101042.31;4985048;28;20058;-75
2022/08/26 10:19:26;;;;;;;1.40;0.80;;;;;;;18.20;78.21;101038.81;4990057;28;20054;-77
2022/08/26 10:22:00;;;;;;;1.00;0.73;;;;;;;18.12;78.62;101043.16;4985048;28;20047;-74
2022/08/26 10:24:33;;;;;;;1.67;0.75;;;;;;;18.05;78.37;101044.03;4981172;28;20085;-75
2022/08/26 10:27:17;;;;;;;0.90;0.65;;;;;;;18.08;77.78;101049.25;4983820;28;20493;-75
2022/08/26 10:29:47;;;;;;;2.55;0.80;;;;;;;18.11;78.12;101049.25;4983236;28;20054;-75
2022/08/26 10:32:24;;;;;;;1.00;0.70;;;;;;;18.11;77.48;101056.25;4984837;28;20054;-77
2022/08/26 10:34:53;;;;;;;1.67;0.52;;;;;;;18.03;80.18;101061.47;4982803;28;20054;-75
2022/08/26 10:37:29;;;;;;;1.63;0.60;;;;;;;17.97;79.53;101064.06;4986397;28;20520;-75
2022/08/26 10:40:01;;;;;;;0.57;0.50;;;;;;;17.95;79.57;101073.63;4974205;28;20077;-74
2022/08/26 10:42:35;;;;;;;2.05;0.60;;;;;;;17.93;79.91;101075.38;4964576;28;20046;-76
2022/08/26 10:45:08;;;;;;;0.80;0.70;;;;;;;17.90;79.68;101070.13;4968780;28;20057;-76
2022/08/26 10:47:43;;;;;;;0.73;0.55;;;;;;;17.90;79.85;101080.59;4965668;28;20051;-76
2022/08/26 10:50:12;;;;;;;1.60;0.70;;;;;;;17.91;80.45;101077.09;4967649;28;20051;-79
2022/08/26 10:52:58;;;;;;;0.38;0.38;;;;;;;17.87;80.65;101075.38;4970485;28;20489;-77
2022/08/26 10:55:37;;;;;;;0.73;0.50;;;;;;;17.85;80.35;101079.72;4972434;28;20496;-76
2022/08/26 10:58:19;;;;;;;0.52;0.45;;;;;;;17.80;79.97;101069.19;4973712;28;20489;-76
2022/08/26 11:03:44;;;;;;;0.70;0.60;;;;;;;17.89;80.15;101081.44;4968621;28;20468;-76
2022/08/26 11:06:26;;;;;;;1.52;0.50;;;;;;;17.89;80.23;101082.34;4971567;28;20645;-76
2022/08/26 11:08:58;;;;;;;0.60;0.60;;;;;;;17.88;79.49;101077.97;4970187;28;20057;-76
2022/08/26 11:11:48;;;;;;;1.35;0.50;;;;;;;17.87;80.89;101075.38;4973750;28;20051;-76
2022/08/26 11:14:37;;;;;;;1.83;0.60;;;;;;;17.87;80.14;101076.22;4964847;28;20560;-76
2022/08/26 11:17:10;;;;;;;0.45;0.40;;;;;;;17.87;80.25;101072.75;4970490;28;20622;-77
2022/08/26 11:20:03;;;;;;;0.90;0.70;;;;;;;17.86;80.04;101068.38;4982532;28;20050;-76
2022/08/26 11:22:36;;;;;;;1.55;0.60;;;;;;;17.85;80.25;101072.72;4971838;28;20526;-76
2022/08/26 11:25:12;;;;;;;0.88;0.50;;;;;;;17.80;79.85;101072.69;4982672;28;20154;-76
2022/08/26 11:27:59;;;;;;;0.98;0.70;;;;;;;17.82;79.68;101079.69;4972331;28;20054;-75
2022/08/26 11:30:44;;;;;;;0.95;0.70;;;;;;;17.77;80.33;101083.16;4972093;28;20058;-77
2022/08/26 11:33:59;;;;;;;0.60;0.60;;;;;;;17.67;81.28;101073.47;4967074;28;20054;-76
2022/08/26 11:36:58;;;;;;;1.80;0.60;;;;;;;17.66;81.35;101087.44;4966550;28;20523;-75
2022/08/26 11:39:34;;;;;;;1.17;0.52;;;;;;;17.64;81.74;101089.16;4950799;28;20058;-75
2022/08/26 11:42:20;;;;;;;0.80;0.60;;;;;;;17.61;80.82;101083.03;4965332;28;20504;-76
2022/08/26 11:44:49;;;;;;;2.78;0.70;;;;;;;17.60;81.17;101082.16;4961756;28;20057;-77
2022/08/26 11:47:27;;;;;;;0.77;0.70;;;;;;;17.60;80.60;101087.41;4966891;28;20035;-76
2022/08/26 11:50:12;;;;;;;1.55;0.60;;;;;;;17.61;80.74;101089.13;4966985;28;20169;-76
2022/08/26 11:52:41;;;;;;;1.75;0.52;;;;;;;17.61;80.27;101089.13;4975858;28;20062;-76
2022/08/26 11:55:15;;;;;;;0.63;0.50;;;;;;;17.60;80.72;101087.41;4984272;28;20054;-77